createdAt,value
2018-11-14T00:00:31.566Z,22.50
2018-11-14T00:03:02.217Z,21.20
2018-11-14T00:05:31.559Z,22.67
2018-11-14T00:08:00.897Z,21.70
2018-11-14T00:10:30.319Z,19.93
2018-11-14T00:12:59.759Z,19.13
2018-11-14T00:15:29.081Z,17.07
2018-11-14T00:17:58.417Z,17.60
2018-11-14T00:20:27.757Z,17.77
2018-11-14T00:22:57.058Z,18.60
2018-11-14T00:25:26.357Z,19.93
2018-11-14T00:27:55.778Z,19.07
2018-11-14T00:30:26.197Z,21.00
2018-11-14T00:32:55.668Z,19.67
2018-11-14T00:35:24.944Z,19.23
2018-11-14T00:37:54.277Z,19.93
2018-11-14T00:40:23.512Z,19.83
2018-11-14T00:42:52.918Z,18.53
2018-11-14T00:45:22.977Z,21.80
2018-11-14T00:47:52.383Z,19.30
2018-11-14T00:50:21.737Z,19.13
2018-11-14T00:52:51.037Z,21.57
2018-11-14T00:55:21.537Z,27.07
2018-11-14T00:57:52.037Z,25.67
2018-11-14T01:00:23.798Z,21.67
2018-11-14T01:02:53.597Z,23.60
2018-11-14T01:05:23.338Z,22.17
2018-11-14T01:07:52.608Z,21.97
2018-11-14T01:10:22.617Z,20.87
2018-11-14T01:12:52.124Z,19.43
2018-11-14T01:15:22.697Z,19.27
2018-11-14T01:17:51.937Z,20.37
2018-11-14T01:20:22.137Z,18.00
2018-11-14T01:22:51.540Z,20.97
2018-11-14T01:25:20.920Z,20.60
2018-11-14T01:27:50.239Z,18.50
2018-11-14T01:30:20.796Z,21.30
2018-11-14T01:32:51.017Z,18.83
2018-11-14T01:35:20.579Z,18.70
2018-11-14T01:37:49.859Z,22.00
2018-11-14T01:40:22.280Z,21.47
2018-11-14T01:42:53.037Z,22.83
2018-11-14T01:45:22.629Z,21.53
2018-11-14T01:47:51.941Z,18.17
2018-11-14T01:50:21.397Z,20.87
2018-11-14T01:52:50.757Z,22.27
2018-11-14T01:55:21.077Z,24.83
2018-11-14T01:57:50.624Z,26.77
2018-11-14T02:00:22.457Z,21.17
2018-11-14T02:02:52.363Z,24.93
2018-11-14T02:05:21.718Z,28.70
2018-11-14T02:07:51.019Z,27.27
2018-11-14T02:10:21.657Z,24.93
2018-11-14T02:12:50.998Z,23.90
2018-11-14T02:15:21.716Z,23.33
2018-11-14T02:17:51.977Z,27.27
2018-11-14T02:20:21.417Z,23.03
2018-11-14T02:22:50.779Z,23.37
2018-11-14T02:25:20.117Z,22.43
2018-11-14T02:27:49.437Z,27.43
2018-11-14T02:30:21.638Z,25.20
2018-11-14T02:32:51.102Z,25.23
2018-11-14T02:35:20.377Z,25.53
2018-11-14T02:37:49.864Z,30.60
2018-11-14T02:40:20.358Z,26.00
2018-11-14T02:42:50.042Z,26.27
2018-11-14T02:45:19.657Z,25.37
2018-11-14T02:47:49.104Z,37.83
2018-11-14T02:50:18.859Z,23.00
2018-11-14T02:52:48.177Z,20.93
2018-11-14T02:55:18.078Z,24.67
2018-11-14T02:57:48.017Z,26.77
2018-11-14T03:00:20.357Z,19.70
2018-11-14T03:02:50.157Z,18.90
2018-11-14T03:05:19.578Z,20.70
2018-11-14T03:07:48.888Z,21.60
2018-11-14T03:10:20.078Z,28.63
2018-11-14T03:12:49.757Z,27.70
2018-11-14T03:15:21.564Z,27.67
2018-11-14T03:17:50.916Z,25.80
2018-11-14T03:20:21.477Z,30.73
2018-11-14T03:22:50.837Z,37.93
2018-11-14T03:25:20.297Z,33.60
2018-11-14T03:27:49.658Z,29.13
2018-11-14T03:30:19.060Z,30.30
2018-11-14T03:32:48.466Z,30.27
2018-11-14T03:35:18.138Z,17.07
2018-11-14T03:37:47.438Z,18.73
2018-11-14T03:40:23.317Z,15.80
2018-11-14T03:42:52.697Z,15.60
2018-11-14T03:45:21.918Z,14.37
2018-11-14T03:47:51.197Z,18.97
2018-11-14T03:50:20.457Z,17.30
2018-11-14T03:52:49.977Z,18.37
2018-11-14T03:55:23.817Z,47.33
2018-11-14T03:57:53.697Z,55.50
2018-11-14T04:00:23.217Z,33.33
2018-11-14T04:02:52.557Z,17.83
2018-11-14T04:05:21.816Z,16.53
2018-11-14T04:07:51.100Z,24.73
2018-11-14T04:10:20.676Z,32.03
2018-11-14T04:12:49.959Z,35.83
2018-11-14T04:15:19.397Z,44.83
2018-11-14T04:17:48.718Z,41.13
2018-11-14T04:20:18.138Z,36.77
2018-11-14T04:22:47.537Z,42.93
2018-11-14T04:25:19.117Z,42.63
2018-11-14T04:27:49.276Z,24.20
2018-11-14T04:30:20.938Z,23.70
2018-11-14T04:32:50.378Z,25.97
2018-11-14T04:35:20.497Z,28.27
2018-11-14T04:37:49.961Z,26.67
2018-11-14T04:40:24.536Z,31.70
2018-11-14T04:42:53.856Z,33.17
2018-11-14T04:45:24.558Z,29.40
2018-11-14T04:47:53.922Z,30.63
2018-11-14T04:50:25.039Z,28.80
2018-11-14T04:52:54.836Z,36.67
2018-11-14T04:55:25.277Z,38.70
2018-11-14T04:57:54.697Z,39.07
2018-11-14T05:00:24.998Z,31.27
2018-11-14T05:02:54.317Z,26.80
2018-11-14T05:05:24.437Z,27.97
2018-11-14T05:07:53.740Z,34.40
2018-11-14T05:10:25.065Z,38.50
2018-11-14T05:12:54.467Z,46.73
2018-11-14T05:15:25.201Z,42.80
2018-11-14T05:17:55.029Z,38.93
2018-11-14T05:20:24.357Z,56.17
2018-11-14T05:22:53.736Z,184.50
2018-11-14T05:25:23.040Z,274.00
2018-11-14T05:27:52.317Z,361.17
2018-11-14T05:30:22.717Z,408.37
2018-11-14T05:32:53.017Z,365.20
2018-11-14T05:35:22.337Z,298.97
2018-11-14T05:37:51.777Z,170.40
2018-11-14T05:40:22.137Z,176.73
2018-11-14T05:42:52.336Z,208.93
2018-11-14T05:45:24.225Z,163.17
2018-11-14T05:47:53.697Z,187.07
2018-11-14T05:50:23.717Z,259.40
2018-11-14T05:52:53.397Z,142.73
2018-11-14T05:55:22.777Z,240.23
2018-11-14T05:57:52.177Z,280.63
2018-11-14T06:00:36.237Z,281.50
2018-11-14T06:03:05.637Z,352.20
2018-11-14T06:05:34.977Z,179.97
2018-11-14T06:08:04.337Z,150.37
2018-11-14T06:10:33.697Z,220.03
2018-11-14T06:13:03.037Z,147.10
2018-11-14T06:15:32.497Z,164.00
2018-11-14T06:18:01.817Z,233.33
2018-11-14T06:20:31.418Z,180.60
2018-11-14T06:23:00.837Z,114.13
2018-11-14T06:25:35.397Z,138.80
2018-11-14T06:28:06.218Z,171.17
2018-11-14T06:30:36.360Z,151.63
2018-11-14T06:33:07.697Z,157.73
2018-11-14T06:35:37.019Z,176.60
2018-11-14T06:38:06.460Z,205.83
2018-11-14T06:40:35.816Z,246.50
2018-11-14T06:43:05.217Z,152.70
2018-11-14T06:45:35.202Z,188.77
2018-11-14T06:48:05.197Z,189.10
2018-11-14T06:50:34.639Z,139.77
2018-11-14T06:53:05.197Z,170.80
2018-11-14T06:55:34.457Z,225.37
2018-11-14T06:58:03.777Z,176.20
2018-11-14T07:00:35.281Z,100.27
2018-11-14T07:03:06.111Z,209.57
2018-11-14T07:05:35.473Z,228.40
2018-11-14T07:08:05.040Z,247.30
2018-11-14T07:10:35.638Z,208.70
2018-11-14T07:13:07.600Z,217.27
2018-11-14T07:15:37.421Z,208.93
2018-11-14T07:18:08.777Z,235.20
2018-11-14T07:20:40.458Z,214.63
2018-11-14T07:23:09.898Z,230.30
2018-11-14T07:25:39.157Z,161.13
2018-11-14T07:28:08.557Z,193.37
2018-11-14T07:30:38.177Z,168.60
2018-11-14T07:33:09.838Z,112.03
2018-11-14T07:35:39.228Z,134.17
2018-11-14T07:41:25.237Z,85.20
2018-11-14T07:43:54.620Z,93.23
2018-11-14T07:46:24.957Z,106.47
2018-11-14T07:48:54.344Z,111.23
2018-11-14T07:51:23.658Z,130.13
2018-11-14T07:53:53.457Z,109.80
2018-11-14T07:56:22.798Z,142.17
2018-11-14T07:58:52.077Z,118.43
2018-11-14T08:01:21.497Z,54.47
2018-11-14T08:03:51.098Z,77.87
2018-11-14T08:06:20.457Z,69.73
2018-11-14T08:08:49.857Z,45.93
2018-11-14T08:11:19.258Z,114.83
2018-11-14T08:13:55.678Z,76.07
2018-11-14T08:16:24.998Z,69.97
2018-11-14T08:18:54.452Z,79.27
2018-11-14T08:21:23.779Z,63.73
2018-11-14T08:23:53.078Z,50.17
2018-11-14T08:26:22.417Z,54.83
2018-11-14T08:28:51.960Z,38.47
2018-11-14T08:31:21.238Z,50.33
2018-11-14T08:33:50.578Z,38.30
2018-11-14T08:36:19.878Z,40.77
2018-11-14T08:38:49.198Z,47.03
2018-11-14T08:41:19.252Z,37.30
2018-11-14T08:43:48.647Z,36.03
2018-11-14T08:46:17.938Z,34.10
2018-11-14T08:48:47.258Z,39.20
2018-11-14T08:51:16.678Z,35.07
2018-11-14T08:53:45.978Z,33.47
2018-11-14T08:56:15.238Z,35.00
2018-11-14T08:58:44.618Z,34.97
2018-11-14T09:01:13.885Z,36.90
2018-11-14T09:03:43.258Z,33.03
2018-11-14T09:06:12.633Z,32.83
2018-11-14T09:08:41.957Z,33.20
2018-11-14T09:11:11.763Z,35.00
2018-11-14T09:13:40.958Z,31.50
2018-11-14T09:16:10.277Z,33.60
2018-11-14T09:18:39.700Z,33.00
2018-11-14T09:21:09.317Z,33.17
2018-11-14T09:23:38.661Z,35.07
2018-11-14T09:26:08.358Z,31.93
2018-11-14T09:28:37.698Z,31.77
2018-11-14T09:31:07.025Z,30.10
2018-11-14T09:33:36.419Z,32.67
2018-11-14T09:36:06.058Z,31.10
2018-11-14T09:38:35.378Z,34.00
2018-11-14T09:41:05.051Z,29.83
2018-11-14T09:43:34.437Z,31.37
2018-11-14T09:46:03.777Z,30.27
2018-11-14T09:48:33.177Z,30.37
2018-11-14T09:51:02.538Z,32.37
2018-11-14T09:53:31.838Z,28.53
2018-11-14T09:56:01.197Z,29.10
2018-11-14T09:58:30.497Z,27.90
2018-11-14T10:00:59.877Z,29.57
2018-11-14T10:03:29.554Z,29.37
2018-11-14T10:05:58.950Z,31.83
2018-11-14T10:08:28.202Z,30.93
2018-11-14T10:10:57.651Z,30.70
2018-11-14T10:13:27.297Z,32.10
2018-11-14T10:15:56.685Z,29.20
2018-11-14T10:18:26.443Z,31.20
2018-11-14T10:20:55.717Z,33.37
2018-11-14T10:23:25.067Z,31.23
2018-11-14T10:25:54.398Z,29.43
2018-11-14T10:28:24.097Z,29.57
2018-11-14T10:30:53.423Z,33.83
2018-11-14T10:33:23.027Z,34.00
2018-11-14T10:35:52.357Z,30.13
2018-11-14T10:38:21.972Z,28.57
2018-11-14T10:40:51.297Z,27.97
2018-11-14T10:43:20.697Z,30.63
2018-11-14T10:45:50.017Z,26.93
2018-11-14T10:48:19.351Z,25.30
2018-11-14T10:50:48.701Z,27.27
2018-11-14T10:53:18.261Z,33.57
2018-11-14T10:55:47.601Z,25.20
2018-11-14T10:58:16.909Z,27.50
2018-11-14T11:00:51.701Z,26.93
2018-11-14T11:03:26.521Z,25.43
2018-11-14T11:06:01.321Z,23.60
2018-11-14T11:08:35.974Z,24.80
2018-11-14T11:11:11.581Z,26.67
2018-11-14T11:14:13.225Z,25.77
2018-11-14T11:16:49.334Z,24.00
2018-11-14T11:19:27.821Z,23.63
2018-11-14T11:21:57.520Z,21.87
2018-11-14T11:24:26.801Z,21.80
2018-11-14T11:26:56.161Z,21.67
2018-11-14T11:29:25.681Z,21.97
2018-11-14T11:31:55.075Z,22.03
2018-11-14T11:34:24.701Z,42.43
2018-11-14T11:36:54.011Z,23.27
2018-11-14T11:39:23.381Z,24.40
2018-11-14T11:41:52.802Z,22.40
2018-11-14T11:44:22.129Z,24.97
2018-11-14T11:46:51.521Z,24.30
2018-11-14T11:49:20.861Z,24.73
2018-11-14T11:51:50.540Z,22.83
2018-11-14T11:54:19.902Z,25.43
2018-11-14T11:56:49.224Z,22.73
2018-11-14T11:59:18.672Z,22.30
2018-11-14T12:01:48.022Z,23.57
2018-11-14T12:04:17.581Z,22.57
2018-11-14T12:06:46.881Z,24.67
2018-11-14T12:09:16.201Z,23.70
2018-11-14T12:11:45.520Z,22.40
2018-11-14T12:14:14.861Z,19.67
2018-11-14T12:16:44.081Z,21.70
2018-11-14T12:19:13.563Z,29.87
2018-11-14T12:21:42.801Z,21.53
2018-11-14T12:24:12.141Z,25.43
2018-11-14T12:26:41.461Z,19.93
2018-11-14T12:29:10.821Z,24.53
2018-11-14T12:31:40.120Z,23.00
2018-11-14T12:34:09.541Z,22.83
2018-11-14T12:36:38.861Z,20.20
2018-11-14T12:39:09.707Z,20.40
2018-11-14T12:41:39.061Z,22.47
2018-11-14T12:44:08.402Z,21.40
2018-11-14T12:46:37.760Z,21.53
2018-11-14T12:49:07.081Z,19.10
2018-11-14T12:51:36.361Z,17.00
2018-11-14T12:54:05.781Z,16.23
2018-11-14T12:56:35.461Z,16.57
2018-11-14T12:59:04.941Z,16.30
2018-11-14T13:01:34.541Z,19.37
2018-11-14T13:04:03.841Z,15.47
2018-11-14T13:06:33.080Z,18.70
2018-11-14T13:09:03.502Z,17.43
2018-11-14T13:11:32.781Z,19.87
2018-11-14T13:14:02.141Z,16.13
2018-11-14T13:16:31.421Z,18.13
2018-11-14T13:19:00.781Z,17.73
2018-11-14T13:21:30.061Z,21.37
2018-11-14T13:23:59.421Z,18.87
2018-11-14T13:26:29.001Z,16.47
2018-11-14T13:28:58.473Z,17.87
2018-11-14T13:31:28.123Z,16.57
2018-11-14T13:33:57.542Z,18.77
2018-11-14T13:36:26.901Z,23.93
2018-11-14T13:38:56.181Z,16.67
2018-11-14T13:41:25.742Z,19.60
2018-11-14T13:43:55.141Z,20.07
2018-11-14T13:46:24.781Z,21.10
2018-11-14T13:48:54.059Z,19.50
2018-11-14T13:51:23.830Z,18.40
2018-11-14T13:53:53.421Z,19.07
2018-11-14T13:56:22.702Z,20.17
2018-11-14T13:58:52.103Z,21.80
2018-11-14T14:01:22.120Z,20.13
2018-11-14T14:03:51.342Z,21.77
2018-11-14T14:06:20.762Z,27.57
2018-11-14T14:08:50.081Z,22.93
2018-11-14T14:11:19.461Z,27.70
2018-11-14T14:13:54.384Z,25.67
2018-11-14T14:16:23.828Z,20.77
2018-11-14T14:18:53.221Z,24.97
2018-11-14T14:21:22.481Z,25.73
2018-11-14T14:23:51.761Z,24.60
2018-11-14T14:26:21.121Z,23.10
2018-11-14T14:28:50.441Z,22.80
2018-11-14T14:31:19.781Z,25.90
2018-11-14T14:33:49.081Z,25.97
2018-11-14T14:36:18.702Z,30.97
2018-11-14T14:38:47.961Z,28.80
2018-11-14T14:41:17.481Z,54.67
2018-11-14T14:43:46.759Z,33.93
2018-11-14T14:46:16.101Z,50.23
2018-11-14T14:48:45.535Z,34.80
2018-11-14T14:51:14.877Z,147.63
2018-11-14T14:53:44.217Z,60.73
2018-11-14T14:56:13.557Z,110.53
2018-11-14T14:58:43.038Z,68.00
2018-11-14T15:01:12.444Z,50.00
2018-11-14T15:03:41.917Z,36.00
2018-11-14T15:06:11.163Z,221.23
2018-11-14T15:08:40.679Z,98.17
2018-11-14T15:11:10.087Z,82.40
2018-11-14T15:13:39.407Z,45.40
2018-11-14T15:16:09.161Z,55.87
2018-11-14T15:18:38.627Z,42.60
2018-11-14T15:21:09.342Z,76.00
2018-11-14T15:23:38.730Z,56.67
2018-11-14T15:26:07.895Z,30.07
2018-11-14T15:28:37.419Z,31.80
2018-11-14T15:31:06.838Z,31.53
2018-11-14T15:33:36.287Z,33.93
2018-11-14T15:36:05.869Z,31.60
2018-11-14T15:38:35.193Z,37.13
2018-11-14T15:41:05.675Z,42.20
2018-11-14T15:43:35.000Z,38.13
2018-11-14T15:46:04.800Z,39.60
2018-11-14T15:48:34.052Z,33.50
2018-11-14T15:51:03.478Z,34.67
2018-11-14T15:53:33.164Z,33.40
2018-11-14T15:56:02.300Z,33.03
2018-11-14T15:58:31.658Z,34.03
2018-11-14T16:01:00.824Z,35.97
2018-11-14T16:03:30.841Z,30.87
2018-11-14T16:06:00.261Z,36.77
2018-11-14T16:08:29.620Z,35.37
2018-11-14T16:10:58.982Z,34.90
2018-11-14T16:13:28.320Z,33.17
2018-11-14T16:15:57.540Z,36.93
2018-11-14T16:18:26.923Z,32.70
2018-11-14T16:20:56.213Z,40.13
2018-11-14T16:23:25.621Z,39.63
2018-11-14T16:25:55.028Z,42.50
2018-11-14T16:28:24.361Z,40.87
2018-11-14T16:30:53.684Z,52.37
2018-11-14T16:33:23.041Z,48.83
2018-11-14T16:35:52.361Z,55.53
2018-11-14T16:38:21.869Z,51.27
2018-11-14T16:40:51.183Z,45.00
2018-11-14T16:43:20.544Z,46.90
2018-11-14T16:45:49.901Z,39.20
2018-11-14T16:48:19.401Z,40.87
2018-11-14T16:50:48.773Z,43.13
2018-11-14T16:53:18.324Z,44.97
2018-11-14T16:55:47.891Z,41.23
2018-11-14T16:58:17.250Z,45.77
2018-11-14T17:00:46.650Z,51.27
2018-11-14T17:03:21.367Z,51.47
2018-11-14T17:05:51.570Z,48.13
2018-11-14T17:08:21.227Z,55.80
2018-11-14T17:10:51.034Z,56.23
2018-11-14T17:13:20.375Z,59.97
2018-11-14T17:15:49.654Z,64.10
2018-11-14T17:18:19.115Z,53.90
2018-11-14T17:20:48.495Z,53.40
2018-11-14T17:23:17.974Z,45.50
2018-11-14T17:25:47.314Z,46.47
2018-11-14T17:28:16.754Z,39.40
2018-11-14T17:30:46.834Z,41.67
2018-11-14T17:33:16.192Z,42.93
2018-11-14T17:35:46.643Z,50.00
2018-11-14T17:38:15.871Z,68.83
2018-11-14T17:40:45.253Z,71.70
2018-11-14T17:43:14.554Z,92.90
2018-11-14T17:45:43.878Z,128.27
2018-11-14T17:48:13.574Z,116.67
2018-11-14T17:50:42.870Z,76.33
2018-11-14T17:53:12.220Z,96.73
2018-11-14T17:55:41.545Z,117.90
2018-11-14T17:58:11.325Z,111.67
2018-11-14T18:00:40.746Z,159.90
2018-11-14T18:03:10.572Z,117.70
2018-11-14T18:05:40.025Z,129.93
2018-11-14T18:08:09.825Z,104.53
2018-11-14T18:10:39.085Z,123.27
2018-11-14T18:13:08.506Z,126.93
2018-11-14T18:15:37.966Z,75.67
2018-11-14T18:18:07.325Z,144.43
2018-11-14T18:20:36.705Z,83.73
2018-11-14T18:23:06.127Z,75.80
2018-11-14T18:25:35.625Z,66.20
2018-11-14T18:28:05.371Z,88.47
2018-11-14T18:30:35.031Z,148.80
2018-11-14T18:33:04.526Z,102.50
2018-11-14T18:35:33.866Z,168.77
2018-11-14T18:38:03.245Z,116.57
2018-11-14T18:40:33.965Z,171.03
2018-11-14T18:43:03.528Z,264.03
2018-11-14T18:45:34.626Z,106.17
2018-11-14T18:48:04.845Z,84.63
2018-11-14T18:50:34.551Z,122.13
2018-11-14T18:53:03.927Z,95.27
2018-11-14T18:55:34.265Z,117.27
2018-11-14T18:58:04.597Z,119.07
2018-11-14T19:00:34.562Z,96.07
2018-11-14T19:03:04.014Z,162.93
2018-11-14T19:05:33.451Z,88.13
2018-11-14T19:08:02.833Z,97.33
2018-11-14T19:10:33.413Z,135.10
2018-11-14T19:13:02.853Z,190.20
2018-11-14T19:15:33.780Z,202.97
2018-11-14T19:18:03.559Z,119.30
2018-11-14T19:20:33.939Z,108.73
2018-11-14T19:23:04.259Z,129.63
2018-11-14T19:25:34.901Z,176.23
2018-11-14T19:28:04.521Z,125.57
2018-11-14T19:30:35.416Z,168.27
2018-11-14T19:33:05.000Z,91.90
2018-11-14T19:35:34.705Z,100.53
2018-11-14T19:38:04.046Z,124.73
2018-11-14T19:40:35.726Z,132.87
2018-11-14T19:43:08.047Z,116.50
2018-11-14T19:45:38.306Z,125.87
2018-11-14T19:48:08.469Z,97.43
2018-11-14T19:50:37.865Z,135.63
2018-11-14T19:53:07.246Z,85.53
2018-11-14T19:55:36.871Z,125.73
2018-11-14T19:58:06.866Z,87.73
2018-11-14T20:00:37.407Z,77.60
2018-11-14T20:03:07.969Z,96.93
2018-11-14T20:05:37.314Z,78.13
2018-11-14T20:08:06.987Z,79.43
2018-11-14T20:10:36.402Z,69.57
2018-11-14T20:13:05.866Z,91.63
2018-11-14T20:15:36.347Z,76.83
2018-11-14T20:18:06.766Z,65.10
2018-11-14T20:20:37.507Z,86.70
2018-11-14T20:23:07.307Z,140.20
2018-11-14T20:25:36.692Z,94.37
2018-11-14T20:28:06.226Z,72.17
2018-11-14T20:30:37.088Z,160.37
2018-11-14T20:33:12.007Z,102.70
2018-11-14T20:35:41.446Z,125.33
2018-11-14T20:38:10.807Z,77.70
2018-11-14T20:40:42.986Z,68.30
2018-11-14T20:43:12.386Z,77.03
2018-11-14T20:45:41.806Z,68.10
2018-11-14T20:48:11.151Z,82.73
2018-11-14T20:50:40.887Z,53.37
2018-11-14T20:53:10.186Z,52.17
2018-11-14T20:55:39.468Z,55.47
2018-11-14T20:58:08.906Z,55.83
2018-11-14T21:00:39.006Z,55.20
2018-11-14T21:03:08.711Z,47.13
2018-11-14T21:05:38.058Z,56.30
2018-11-14T21:08:07.748Z,50.20
2018-11-14T21:10:38.111Z,39.83
2018-11-14T21:13:07.427Z,38.77
2018-11-14T21:15:38.088Z,46.00
2018-11-14T21:18:07.887Z,43.33
2018-11-14T21:20:37.646Z,40.37
2018-11-14T21:23:07.173Z,44.07
2018-11-14T21:25:36.546Z,44.60
2018-11-14T21:28:05.986Z,49.50
2018-11-14T21:30:35.407Z,61.23
2018-11-14T21:33:05.007Z,67.10
2018-11-14T21:35:35.908Z,55.47
2018-11-14T21:38:06.878Z,64.10
2018-11-14T21:40:36.226Z,46.93
2018-11-14T21:43:06.686Z,66.80
2018-11-14T21:45:36.029Z,56.30
2018-11-14T21:48:10.907Z,54.07
2018-11-14T21:50:40.767Z,77.60
2018-11-14T21:53:10.202Z,72.43
2018-11-14T21:55:39.429Z,61.73
2018-11-14T21:58:08.688Z,69.83
2018-11-14T22:00:39.286Z,39.63
2018-11-14T22:03:09.727Z,47.37
2018-11-14T22:05:39.646Z,69.40
2018-11-14T22:08:08.926Z,81.80
2018-11-14T22:10:38.407Z,67.23
2018-11-14T22:13:07.740Z,43.30
2018-11-14T22:15:37.067Z,77.17
2018-11-14T22:18:06.446Z,71.50
2018-11-14T22:20:35.757Z,52.00
2018-11-14T22:23:05.466Z,39.07
2018-11-14T22:25:34.766Z,52.00
2018-11-14T22:28:04.094Z,57.40
2018-11-14T22:30:34.386Z,123.43
2018-11-14T22:33:03.729Z,116.67
2018-11-14T22:35:33.406Z,110.70
2018-11-14T22:38:02.707Z,117.63
2018-11-14T22:40:32.525Z,98.23
2018-11-14T22:43:01.892Z,66.23
2018-11-14T22:45:32.529Z,93.90
2018-11-14T22:48:02.566Z,113.03
2018-11-14T22:50:31.868Z,58.53
2018-11-14T22:53:01.248Z,57.23
2018-11-14T22:55:30.546Z,68.90
2018-11-14T22:57:59.886Z,67.43
2018-11-14T23:00:36.808Z,50.43
2018-11-14T23:03:06.506Z,61.50
2018-11-14T23:05:35.816Z,47.73
2018-11-14T23:08:05.466Z,56.17
2018-11-14T23:10:34.825Z,40.47
2018-11-14T23:13:04.606Z,45.30
2018-11-14T23:15:34.014Z,93.90
2018-11-14T23:18:03.657Z,94.90
2018-11-14T23:20:32.957Z,59.67
2018-11-14T23:23:02.313Z,52.53
2018-11-14T23:25:31.961Z,36.70
2018-11-14T23:28:01.277Z,36.20
2018-11-14T23:30:30.817Z,38.20
2018-11-14T23:33:00.225Z,53.70
2018-11-14T23:35:30.684Z,44.00
2018-11-14T23:38:03.304Z,40.17
2018-11-14T23:40:32.604Z,41.27
2018-11-14T23:43:02.009Z,46.37
2018-11-14T23:45:31.947Z,54.80
2018-11-14T23:48:01.214Z,76.90
2018-11-14T23:50:31.724Z,50.87
2018-11-14T23:53:01.765Z,41.00
2018-11-14T23:55:31.863Z,30.63
2018-11-14T23:58:01.305Z,24.17
